sensor_id;sensor_type;location;lat;lon;timestamp;P1;durP1;ratioP1;P2;durP2;ratioP2
72437;SDS011;60444;43.534;-5.674;2024-02-21T00:01:22;15.03;;;5.93;;
72437;SDS011;60444;43.534;-5.674;2024-02-21T00:03:48;11.27;;;5.07;;
72437;SDS011;60444;43.534;-5.674;2024-02-21T00:06:13;9.60;;;4.85;;
72437;SDS011;60444;43.534;-5.674;2024-02-21T00:08:39;11.33;;;6.10;;
72437;SDS011;60444;43.534;-5.674;2024-02-21T00:11:04;14.27;;;5.50;;
72437;SDS011;60444;43.534;-5.674;2024-02-21T00:13:30;12.57;;;5.25;;
72437;SDS011;60444;43.534;-5.674;2024-02-21T00:15:56;11.97;;;5.53;;
72437;SDS011;60444;43.534;-5.674;2024-02-21T00:18:21;10.90;;;5.20;;
72437;SDS011;60444;43.534;-5.674;2024-02-21T00:20:47;10.37;;;5.30;;
72437;SDS011;60444;43.534;-5.674;2024-02-21T00:23:12;11.30;;;5.30;;
72437;SDS011;60444;43.534;-5.674;2024-02-21T00:25:38;11.07;;;4.67;;
72437;SDS011;60444;43.534;-5.674;2024-02-21T00:28:03;11.75;;;5.60;;
72437;SDS011;60444;43.534;-5.674;2024-02-21T00:30:31;10.20;;;4.97;;
72437;SDS011;60444;43.534;-5.674;2024-02-21T00:32:56;13.27;;;5.17;;
72437;SDS011;60444;43.534;-5.674;2024-02-21T00:35:22;10.47;;;4.73;;
72437;SDS011;60444;43.534;-5.674;2024-02-21T00:37:47;10.63;;;4.97;;
72437;SDS011;60444;43.534;-5.674;2024-02-21T00:40:13;11.67;;;5.43;;
72437;SDS011;60444;43.534;-5.674;2024-02-21T00:42:45;12.75;;;5.03;;
72437;SDS011;60444;43.534;-5.674;2024-02-21T00:45:10;11.40;;;4.78;;
72437;SDS011;60444;43.534;-5.674;2024-02-21T00:47:36;10.60;;;4.80;;
72437;SDS011;60444;43.534;-5.674;2024-02-21T00:50:02;11.23;;;5.00;;
72437;SDS011;60444;43.534;-5.674;2024-02-21T00:52:27;9.70;;;4.43;;
72437;SDS011;60444;43.534;-5.674;2024-02-21T00:54:53;10.27;;;4.77;;
72437;SDS011;60444;43.534;-5.674;2024-02-21T00:57:18;9.67;;;4.33;;
72437;SDS011;60444;43.534;-5.674;2024-02-21T00:59:44;11.90;;;5.70;;
72437;SDS011;60444;43.534;-5.674;2024-02-21T01:02:09;11.90;;;4.67;;
72437;SDS011;60444;43.534;-5.674;2024-02-21T01:04:35;10.67;;;4.70;;
72437;SDS011;60444;43.534;-5.674;2024-02-21T01:07:01;12.50;;;4.55;;
72437;SDS011;60444;43.534;-5.674;2024-02-21T01:09:27;10.23;;;4.72;;
72437;SDS011;60444;43.534;-5.674;2024-02-21T01:11:52;10.97;;;5.17;;
72437;SDS011;60444;43.534;-5.674;2024-02-21T01:14:18;9.77;;;4.40;;
72437;SDS011;60444;43.534;-5.674;2024-02-21T01:16:43;10.10;;;4.83;;
72437;SDS011;60444;43.534;-5.674;2024-02-21T01:19:09;11.57;;;4.60;;
72437;SDS011;60444;43.534;-5.674;2024-02-21T01:21:34;10.93;;;4.93;;
72437;SDS011;60444;43.534;-5.674;2024-02-21T01:24:00;9.37;;;4.77;;
72437;SDS011;60444;43.534;-5.674;2024-02-21T01:26:25;11.13;;;5.43;;
72437;SDS011;60444;43.534;-5.674;2024-02-21T01:28:51;11.47;;;5.10;;
72437;SDS011;60444;43.534;-5.674;2024-02-21T01:31:17;9.43;;;4.72;;
72437;SDS011;60444;43.534;-5.674;2024-02-21T01:33:43;9.43;;;3.83;;
72437;SDS011;60444;43.534;-5.674;2024-02-21T01:36:08;9.90;;;4.00;;
72437;SDS011;60444;43.534;-5.674;2024-02-21T01:38:34;11.17;;;4.30;;
72437;SDS011;60444;43.534;-5.674;2024-02-21T01:41:00;10.82;;;4.32;;
72437;SDS011;60444;43.534;-5.674;2024-02-21T01:43:25;9.50;;;3.93;;
72437;SDS011;60444;43.534;-5.674;2024-02-21T01:45:57;10.63;;;4.95;;
72437;SDS011;60444;43.534;-5.674;2024-02-21T01:48:23;9.57;;;4.33;;
72437;SDS011;60444;43.534;-5.674;2024-02-21T01:50:50;10.77;;;4.45;;
72437;SDS011;60444;43.534;-5.674;2024-02-21T01:53:18;10.73;;;4.28;;
72437;SDS011;60444;43.534;-5.674;2024-02-21T01:56:00;10.98;;;4.55;;
72437;SDS011;60444;43.534;-5.674;2024-02-21T01:58:27;11.88;;;5.50;;
72437;SDS011;60444;43.534;-5.674;2024-02-21T02:00:56;10.80;;;4.40;;
72437;SDS011;60444;43.534;-5.674;2024-02-21T02:03:22;9.68;;;4.20;;
72437;SDS011;60444;43.534;-5.674;2024-02-21T02:05:50;9.60;;;4.28;;
72437;SDS011;60444;43.534;-5.674;2024-02-21T02:08:16;9.57;;;4.40;;
72437;SDS011;60444;43.534;-5.674;2024-02-21T02:10:44;10.07;;;4.53;;
72437;SDS011;60444;43.534;-5.674;2024-02-21T02:13:10;9.43;;;4.07;;
72437;SDS011;60444;43.534;-5.674;2024-02-21T02:15:43;11.40;;;4.00;;
72437;SDS011;60444;43.534;-5.674;2024-02-21T02:18:13;9.90;;;4.38;;
72437;SDS011;60444;43.534;-5.674;2024-02-21T02:20:39;8.75;;;3.70;;
72437;SDS011;60444;43.534;-5.674;2024-02-21T02:25:43;11.35;;;4.20;;
72437;SDS011;60444;43.534;-5.674;2024-02-21T02:28:09;8.82;;;3.80;;
72437;SDS011;60444;43.534;-5.674;2024-02-21T02:30:37;8.87;;;3.67;;
72437;SDS011;60444;43.534;-5.674;2024-02-21T02:33:03;9.45;;;3.58;;
72437;SDS011;60444;43.534;-5.674;2024-02-21T02:35:29;9.52;;;4.20;;
72437;SDS011;60444;43.534;-5.674;2024-02-21T02:37:55;9.23;;;4.10;;
72437;SDS011;60444;43.534;-5.674;2024-02-21T02:40:20;8.77;;;3.53;;
72437;SDS011;60444;43.534;-5.674;2024-02-21T02:42:46;10.43;;;4.30;;
72437;SDS011;60444;43.534;-5.674;2024-02-21T02:45:13;9.95;;;4.10;;
72437;SDS011;60444;43.534;-5.674;2024-02-21T02:47:40;9.90;;;4.30;;
72437;SDS011;60444;43.534;-5.674;2024-02-21T02:50:06;9.68;;;4.63;;
72437;SDS011;60444;43.534;-5.674;2024-02-21T02:52:32;9.10;;;3.90;;
72437;SDS011;60444;43.534;-5.674;2024-02-21T02:54:57;8.77;;;3.57;;
72437;SDS011;60444;43.534;-5.674;2024-02-21T02:57:23;9.13;;;3.63;;
72437;SDS011;60444;43.534;-5.674;2024-02-21T02:59:49;9.18;;;3.35;;
72437;SDS011;60444;43.534;-5.674;2024-02-21T03:02:15;7.93;;;3.70;;
72437;SDS011;60444;43.534;-5.674;2024-02-21T03:04:41;9.30;;;3.43;;
72437;SDS011;60444;43.534;-5.674;2024-02-21T03:07:07;8.13;;;3.78;;
72437;SDS011;60444;43.534;-5.674;2024-02-21T03:09:32;9.50;;;3.70;;
72437;SDS011;60444;43.534;-5.674;2024-02-21T03:11:58;9.17;;;3.90;;
72437;SDS011;60444;43.534;-5.674;2024-02-21T03:14:30;9.43;;;4.25;;
72437;SDS011;60444;43.534;-5.674;2024-02-21T03:16:59;9.18;;;3.83;;
72437;SDS011;60444;43.534;-5.674;2024-02-21T03:19:25;9.25;;;4.22;;
72437;SDS011;60444;43.534;-5.674;2024-02-21T03:21:51;9.50;;;4.00;;
72437;SDS011;60444;43.534;-5.674;2024-02-21T03:24:17;7.90;;;3.42;;
72437;SDS011;60444;43.534;-5.674;2024-02-21T03:26:43;8.63;;;3.60;;
72437;SDS011;60444;43.534;-5.674;2024-02-21T03:29:10;9.23;;;3.30;;
72437;SDS011;60444;43.534;-5.674;2024-02-21T03:31:36;9.30;;;3.65;;
72437;SDS011;60444;43.534;-5.674;2024-02-21T03:34:02;8.43;;;3.85;;
72437;SDS011;60444;43.534;-5.674;2024-02-21T03:36:27;9.30;;;3.40;;
72437;SDS011;60444;43.534;-5.674;2024-02-21T03:38:54;7.50;;;3.27;;
72437;SDS011;60444;43.534;-5.674;2024-02-21T03:41:20;9.73;;;3.72;;
72437;SDS011;60444;43.534;-5.674;2024-02-21T03:43:46;8.48;;;3.60;;
72437;SDS011;60444;43.534;-5.674;2024-02-21T03:46:11;9.60;;;3.57;;
72437;SDS011;60444;43.534;-5.674;2024-02-21T03:48:37;8.90;;;3.60;;
72437;SDS011;60444;43.534;-5.674;2024-02-21T03:51:02;9.68;;;3.58;;
72437;SDS011;60444;43.534;-5.674;2024-02-21T03:53:28;8.40;;;3.30;;
72437;SDS011;60444;43.534;-5.674;2024-02-21T03:55:54;9.98;;;3.72;;
72437;SDS011;60444;43.534;-5.674;2024-02-21T03:58:20;8.97;;;3.20;;
72437;SDS011;60444;43.534;-5.674;2024-02-21T04:00:46;9.05;;;3.30;;
72437;SDS011;60444;43.534;-5.674;2024-02-21T04:03:11;9.13;;;3.60;;
72437;SDS011;60444;43.534;-5.674;2024-02-21T04:05:37;8.18;;;3.40;;
72437;SDS011;60444;43.534;-5.674;2024-02-21T04:08:05;8.00;;;3.80;;
72437;SDS011;60444;43.534;-5.674;2024-02-21T04:10:31;7.25;;;3.00;;
72437;SDS011;60444;43.534;-5.674;2024-02-21T04:12:56;9.27;;;3.50;;
72437;SDS011;60444;43.534;-5.674;2024-02-21T04:15:22;8.48;;;2.90;;
72437;SDS011;60444;43.534;-5.674;2024-02-21T04:17:47;7.73;;;3.23;;
72437;SDS011;60444;43.534;-5.674;2024-02-21T04:20:16;8.63;;;3.27;;
72437;SDS011;60444;43.534;-5.674;2024-02-21T04:22:44;9.35;;;3.25;;
72437;SDS011;60444;43.534;-5.674;2024-02-21T04:25:11;8.80;;;3.05;;
72437;SDS011;60444;43.534;-5.674;2024-02-21T04:27:39;9.02;;;3.30;;
72437;SDS011;60444;43.534;-5.674;2024-02-21T04:30:06;8.40;;;3.65;;
72437;SDS011;60444;43.534;-5.674;2024-02-21T04:32:32;8.17;;;2.73;;
72437;SDS011;60444;43.534;-5.674;2024-02-21T04:34:58;7.47;;;2.90;;
72437;SDS011;60444;43.534;-5.674;2024-02-21T04:37:23;8.03;;;3.33;;
72437;SDS011;60444;43.534;-5.674;2024-02-21T04:39:49;8.65;;;3.72;;
72437;SDS011;60444;43.534;-5.674;2024-02-21T04:42:15;9.40;;;3.28;;
72437;SDS011;60444;43.534;-5.674;2024-02-21T04:44:41;7.50;;;3.00;;
72437;SDS011;60444;43.534;-5.674;2024-02-21T04:47:06;9.25;;;3.33;;
72437;SDS011;60444;43.534;-5.674;2024-02-21T04:49:33;8.23;;;3.00;;
72437;SDS011;60444;43.534;-5.674;2024-02-21T04:51:58;7.65;;;2.92;;
72437;SDS011;60444;43.534;-5.674;2024-02-21T04:54:24;8.13;;;3.40;;
72437;SDS011;60444;43.534;-5.674;2024-02-21T04:56:53;9.53;;;3.10;;
72437;SDS011;60444;43.534;-5.674;2024-02-21T04:59:18;7.55;;;2.90;;
72437;SDS011;60444;43.534;-5.674;2024-02-21T05:01:44;8.80;;;3.23;;
72437;SDS011;60444;43.534;-5.674;2024-02-21T05:04:09;7.77;;;2.80;;
72437;SDS011;60444;43.534;-5.674;2024-02-21T05:06:38;6.90;;;2.67;;
72437;SDS011;60444;43.534;-5.674;2024-02-21T05:09:07;7.95;;;3.28;;
72437;SDS011;60444;43.534;-5.674;2024-02-21T05:11:34;7.60;;;3.37;;
72437;SDS011;60444;43.534;-5.674;2024-02-21T05:14:00;7.65;;;2.97;;
72437;SDS011;60444;43.534;-5.674;2024-02-21T05:16:25;8.23;;;3.05;;
72437;SDS011;60444;43.534;-5.674;2024-02-21T05:18:51;7.30;;;2.77;;
72437;SDS011;60444;43.534;-5.674;2024-02-21T05:21:17;7.70;;;2.93;;
72437;SDS011;60444;43.534;-5.674;2024-02-21T05:23:42;7.63;;;2.92;;
72437;SDS011;60444;43.534;-5.674;2024-02-21T05:26:08;7.40;;;2.80;;
72437;SDS011;60444;43.534;-5.674;2024-02-21T05:28:34;8.43;;;2.90;;
72437;SDS011;60444;43.534;-5.674;2024-02-21T05:30:59;8.10;;;2.90;;
72437;SDS011;60444;43.534;-5.674;2024-02-21T05:33:25;7.95;;;3.10;;
72437;SDS011;60444;43.534;-5.674;2024-02-21T05:35:51;7.13;;;2.70;;
72437;SDS011;60444;43.534;-5.674;2024-02-21T05:38:17;8.48;;;2.80;;
72437;SDS011;60444;43.534;-5.674;2024-02-21T05:40:42;7.40;;;2.80;;
72437;SDS011;60444;43.534;-5.674;2024-02-21T05:43:09;10.60;;;3.30;;
72437;SDS011;60444;43.534;-5.674;2024-02-21T05:45:35;7.45;;;2.95;;
72437;SDS011;60444;43.534;-5.674;2024-02-21T05:48:02;7.90;;;2.73;;
72437;SDS011;60444;43.534;-5.674;2024-02-21T05:50:28;7.22;;;2.50;;
72437;SDS011;60444;43.534;-5.674;2024-02-21T05:52:54;7.18;;;2.60;;
72437;SDS011;60444;43.534;-5.674;2024-02-21T05:55:20;7.83;;;2.60;;
72437;SDS011;60444;43.534;-5.674;2024-02-21T05:57:46;9.63;;;3.00;;
72437;SDS011;60444;43.534;-5.674;2024-02-21T06:00:12;7.82;;;2.55;;
72437;SDS011;60444;43.534;-5.674;2024-02-21T06:02:38;7.03;;;2.60;;
72437;SDS011;60444;43.534;-5.674;2024-02-21T06:05:05;8.73;;;3.00;;
72437;SDS011;60444;43.534;-5.674;2024-02-21T06:07:32;8.00;;;2.78;;
72437;SDS011;60444;43.534;-5.674;2024-02-21T06:09:59;9.20;;;2.83;;
72437;SDS011;60444;43.534;-5.674;2024-02-21T06:12:25;7.65;;;2.58;;
72437;SDS011;60444;43.534;-5.674;2024-02-21T06:14:50;6.87;;;2.57;;
72437;SDS011;60444;43.534;-5.674;2024-02-21T06:17:17;6.65;;;2.75;;
72437;SDS011;60444;43.534;-5.674;2024-02-21T06:19:42;7.63;;;2.30;;
72437;SDS011;60444;43.534;-5.674;2024-02-21T06:22:08;9.02;;;2.72;;
72437;SDS011;60444;43.534;-5.674;2024-02-21T06:24:37;8.37;;;2.57;;
72437;SDS011;60444;43.534;-5.674;2024-02-21T06:27:03;7.97;;;3.08;;
72437;SDS011;60444;43.534;-5.674;2024-02-21T06:29:31;7.88;;;2.70;;
72437;SDS011;60444;43.534;-5.674;2024-02-21T06:31:56;7.97;;;3.00;;
72437;SDS011;60444;43.534;-5.674;2024-02-21T06:34:22;9.33;;;2.23;;
72437;SDS011;60444;43.534;-5.674;2024-02-21T06:36:49;7.18;;;2.50;;
72437;SDS011;60444;43.534;-5.674;2024-02-21T06:39:15;7.93;;;2.83;;
72437;SDS011;60444;43.534;-5.674;2024-02-21T06:41:41;8.63;;;2.70;;
72437;SDS011;60444;43.534;-5.674;2024-02-21T06:44:06;7.78;;;2.47;;
72437;SDS011;60444;43.534;-5.674;2024-02-21T06:46:32;7.33;;;2.50;;
72437;SDS011;60444;43.534;-5.674;2024-02-21T06:48:58;6.30;;;2.08;;
72437;SDS011;60444;43.534;-5.674;2024-02-21T06:51:29;6.55;;;2.45;;
72437;SDS011;60444;43.534;-5.674;2024-02-21T06:53:55;7.60;;;2.60;;
72437;SDS011;60444;43.534;-5.674;2024-02-21T06:56:23;6.00;;;2.30;;
72437;SDS011;60444;43.534;-5.674;2024-02-21T06:58:56;7.63;;;2.40;;
72437;SDS011;60444;43.534;-5.674;2024-02-21T07:01:22;6.38;;;2.17;;
72437;SDS011;60444;43.534;-5.674;2024-02-21T07:03:48;8.17;;;2.23;;
72437;SDS011;60444;43.534;-5.674;2024-02-21T07:06:14;7.97;;;2.30;;
72437;SDS011;60444;43.534;-5.674;2024-02-21T07:08:39;7.70;;;2.27;;
72437;SDS011;60444;43.534;-5.674;2024-02-21T07:11:05;6.83;;;2.20;;
72437;SDS011;60444;43.534;-5.674;2024-02-21T07:13:32;6.60;;;2.30;;
72437;SDS011;60444;43.534;-5.674;2024-02-21T07:15:57;8.52;;;3.17;;
72437;SDS011;60444;43.534;-5.674;2024-02-21T07:18:23;7.63;;;2.60;;
72437;SDS011;60444;43.534;-5.674;2024-02-21T07:20:50;7.13;;;2.70;;
72437;SDS011;60444;43.534;-5.674;2024-02-21T07:23:16;7.47;;;2.30;;
72437;SDS011;60444;43.534;-5.674;2024-02-21T07:25:42;7.00;;;2.57;;
72437;SDS011;60444;43.534;-5.674;2024-02-21T07:28:08;6.80;;;2.28;;
72437;SDS011;60444;43.534;-5.674;2024-02-21T07:30:33;7.27;;;2.20;;
72437;SDS011;60444;43.534;-5.674;2024-02-21T07:32:59;6.97;;;2.30;;
72437;SDS011;60444;43.534;-5.674;2024-02-21T07:35:24;9.03;;;2.47;;
72437;SDS011;60444;43.534;-5.674;2024-02-21T07:37:50;6.90;;;2.43;;
72437;SDS011;60444;43.534;-5.674;2024-02-21T07:40:16;7.67;;;2.47;;
72437;SDS011;60444;43.534;-5.674;2024-02-21T07:42:42;8.57;;;2.38;;
72437;SDS011;60444;43.534;-5.674;2024-02-21T07:45:08;7.43;;;2.78;;
72437;SDS011;60444;43.534;-5.674;2024-02-21T07:47:35;7.03;;;2.22;;
72437;SDS011;60444;43.534;-5.674;2024-02-21T07:50:01;7.17;;;2.53;;
72437;SDS011;60444;43.534;-5.674;2024-02-21T07:52:27;8.25;;;2.50;;
72437;SDS011;60444;43.534;-5.674;2024-02-21T07:54:53;7.03;;;2.70;;
72437;SDS011;60444;43.534;-5.674;2024-02-21T07:57:18;7.07;;;2.60;;
72437;SDS011;60444;43.534;-5.674;2024-02-21T07:59:44;6.30;;;2.10;;
72437;SDS011;60444;43.534;-5.674;2024-02-21T08:02:09;7.83;;;2.93;;
72437;SDS011;60444;43.534;-5.674;2024-02-21T08:04:35;8.65;;;2.35;;
72437;SDS011;60444;43.534;-5.674;2024-02-21T08:07:02;7.38;;;2.33;;
72437;SDS011;60444;43.534;-5.674;2024-02-21T08:09:29;8.10;;;2.27;;
72437;SDS011;60444;43.534;-5.674;2024-02-21T08:11:55;7.55;;;2.20;;
72437;SDS011;60444;43.534;-5.674;2024-02-21T08:14:21;7.15;;;2.20;;
72437;SDS011;60444;43.534;-5.674;2024-02-21T08:16:47;8.05;;;2.40;;
72437;SDS011;60444;43.534;-5.674;2024-02-21T08:19:12;9.70;;;2.80;;
72437;SDS011;60444;43.534;-5.674;2024-02-21T08:21:38;7.25;;;2.45;;
72437;SDS011;60444;43.534;-5.674;2024-02-21T08:24:04;7.27;;;2.20;;
72437;SDS011;60444;43.534;-5.674;2024-02-21T08:26:29;7.37;;;2.77;;
72437;SDS011;60444;43.534;-5.674;2024-02-21T08:28:56;7.88;;;2.53;;
72437;SDS011;60444;43.534;-5.674;2024-02-21T08:31:26;7.25;;;2.05;;
72437;SDS011;60444;43.534;-5.674;2024-02-21T08:33:59;7.40;;;2.40;;
72437;SDS011;60444;43.534;-5.674;2024-02-21T08:36:34;12.43;;;3.75;;
72437;SDS011;60444;43.534;-5.674;2024-02-21T08:39:00;6.83;;;2.33;;
72437;SDS011;60444;43.534;-5.674;2024-02-21T08:41:27;8.98;;;2.45;;
72437;SDS011;60444;43.534;-5.674;2024-02-21T08:43:55;8.00;;;2.55;;
72437;SDS011;60444;43.534;-5.674;2024-02-21T08:46:20;8.27;;;2.40;;
72437;SDS011;60444;43.534;-5.674;2024-02-21T08:48:46;8.67;;;2.50;;
72437;SDS011;60444;43.534;-5.674;2024-02-21T08:51:15;8.73;;;3.10;;
72437;SDS011;60444;43.534;-5.674;2024-02-21T08:53:40;11.60;;;4.70;;
72437;SDS011;60444;43.534;-5.674;2024-02-21T08:56:06;10.90;;;3.57;;
72437;SDS011;60444;43.534;-5.674;2024-02-21T08:58:39;8.43;;;2.80;;
72437;SDS011;60444;43.534;-5.674;2024-02-21T09:01:05;7.70;;;2.70;;
72437;SDS011;60444;43.534;-5.674;2024-02-21T09:03:32;7.70;;;2.72;;
72437;SDS011;60444;43.534;-5.674;2024-02-21T09:05:58;10.03;;;3.30;;
72437;SDS011;60444;43.534;-5.674;2024-02-21T09:08:24;7.78;;;2.58;;
72437;SDS011;60444;43.534;-5.674;2024-02-21T09:10:50;11.40;;;3.67;;
72437;SDS011;60444;43.534;-5.674;2024-02-21T09:13:16;7.47;;;2.63;;
72437;SDS011;60444;43.534;-5.674;2024-02-21T09:15:42;10.55;;;3.13;;
72437;SDS011;60444;43.534;-5.674;2024-02-21T09:18:08;11.85;;;4.88;;
72437;SDS011;60444;43.534;-5.674;2024-02-21T09:20:33;7.63;;;2.70;;
72437;SDS011;60444;43.534;-5.674;2024-02-21T09:22:58;8.33;;;3.03;;
72437;SDS011;60444;43.534;-5.674;2024-02-21T09:25:24;8.13;;;3.33;;
72437;SDS011;60444;43.534;-5.674;2024-02-21T09:27:49;7.72;;;3.47;;
72437;SDS011;60444;43.534;-5.674;2024-02-21T09:30:17;13.48;;;5.50;;
72437;SDS011;60444;43.534;-5.674;2024-02-21T09:32:44;9.83;;;3.70;;
72437;SDS011;60444;43.534;-5.674;2024-02-21T09:35:09;9.07;;;3.00;;
72437;SDS011;60444;43.534;-5.674;2024-02-21T09:37:35;9.03;;;2.97;;
72437;SDS011;60444;43.534;-5.674;2024-02-21T09:40:01;10.43;;;3.47;;
72437;SDS011;60444;43.534;-5.674;2024-02-21T09:42:48;8.68;;;3.35;;
72437;SDS011;60444;43.534;-5.674;2024-02-21T09:45:19;8.20;;;3.03;;
72437;SDS011;60444;43.534;-5.674;2024-02-21T09:50:38;11.57;;;3.20;;
72437;SDS011;60444;43.534;-5.674;2024-02-21T09:53:08;9.68;;;3.60;;
72437;SDS011;60444;43.534;-5.674;2024-02-21T09:55:37;10.85;;;3.75;;
72437;SDS011;60444;43.534;-5.674;2024-02-21T09:58:05;9.55;;;3.75;;
72437;SDS011;60444;43.534;-5.674;2024-02-21T10:00:31;9.70;;;3.60;;
72437;SDS011;60444;43.534;-5.674;2024-02-21T10:02:58;8.38;;;3.38;;
72437;SDS011;60444;43.534;-5.674;2024-02-21T10:05:23;12.17;;;3.60;;
72437;SDS011;60444;43.534;-5.674;2024-02-21T10:07:50;9.07;;;3.33;;
72437;SDS011;60444;43.534;-5.674;2024-02-21T10:10:16;11.63;;;3.80;;
72437;SDS011;60444;43.534;-5.674;2024-02-21T10:12:52;9.77;;;3.33;;
72437;SDS011;60444;43.534;-5.674;2024-02-21T10:15:23;9.43;;;3.13;;
72437;SDS011;60444;43.534;-5.674;2024-02-21T10:17:59;9.43;;;2.60;;
72437;SDS011;60444;43.534;-5.674;2024-02-21T10:20:26;10.40;;;3.40;;
72437;SDS011;60444;43.534;-5.674;2024-02-21T10:23:02;9.30;;;3.53;;
72437;SDS011;60444;43.534;-5.674;2024-02-21T10:25:28;10.23;;;3.22;;
72437;SDS011;60444;43.534;-5.674;2024-02-21T10:27:55;9.20;;;3.08;;
72437;SDS011;60444;43.534;-5.674;2024-02-21T10:30:21;9.97;;;3.53;;
72437;SDS011;60444;43.534;-5.674;2024-02-21T10:32:53;9.93;;;3.53;;
72437;SDS011;60444;43.534;-5.674;2024-02-21T10:35:30;7.55;;;3.30;;
72437;SDS011;60444;43.534;-5.674;2024-02-21T10:37:56;9.00;;;2.75;;
72437;SDS011;60444;43.534;-5.674;2024-02-21T10:40:26;11.80;;;3.22;;
72437;SDS011;60444;43.534;-5.674;2024-02-21T10:42:57;8.60;;;3.07;;
72437;SDS011;60444;43.534;-5.674;2024-02-21T10:45:30;10.15;;;2.83;;
72437;SDS011;60444;43.534;-5.674;2024-02-21T10:48:09;8.00;;;3.00;;
72437;SDS011;60444;43.534;-5.674;2024-02-21T10:56:30;8.67;;;3.00;;
72437;SDS011;60444;43.534;-5.674;2024-02-21T10:59:02;8.45;;;3.03;;
72437;SDS011;60444;43.534;-5.674;2024-02-21T11:01:29;11.07;;;3.20;;
72437;SDS011;60444;43.534;-5.674;2024-02-21T11:03:57;8.27;;;2.95;;
72437;SDS011;60444;43.534;-5.674;2024-02-21T11:06:25;9.13;;;3.00;;
72437;SDS011;60444;43.534;-5.674;2024-02-21T11:09:05;8.93;;;2.90;;
72437;SDS011;60444;43.534;-5.674;2024-02-21T11:11:38;12.50;;;3.17;;
72437;SDS011;60444;43.534;-5.674;2024-02-21T11:16:37;10.57;;;2.88;;
72437;SDS011;60444;43.534;-5.674;2024-02-21T11:19:07;9.68;;;2.72;;
72437;SDS011;60444;43.534;-5.674;2024-02-21T11:21:38;6.97;;;2.33;;
72437;SDS011;60444;43.534;-5.674;2024-02-21T11:24:04;9.10;;;3.08;;
72437;SDS011;60444;43.534;-5.674;2024-02-21T11:26:30;11.32;;;3.78;;
72437;SDS011;60444;43.534;-5.674;2024-02-21T11:28:59;9.52;;;3.50;;
72437;SDS011;60444;43.534;-5.674;2024-02-21T11:31:25;9.10;;;3.30;;
72437;SDS011;60444;43.534;-5.674;2024-02-21T11:33:54;9.83;;;3.20;;
72437;SDS011;60444;43.534;-5.674;2024-02-21T11:36:25;8.90;;;3.08;;
72437;SDS011;60444;43.534;-5.674;2024-02-21T11:38:51;7.90;;;2.65;;
72437;SDS011;60444;43.534;-5.674;2024-02-21T11:41:18;7.43;;;2.72;;
72437;SDS011;60444;43.534;-5.674;2024-02-21T11:43:46;8.43;;;3.15;;
72437;SDS011;60444;43.534;-5.674;2024-02-21T11:46:13;7.60;;;2.73;;
72437;SDS011;60444;43.534;-5.674;2024-02-21T11:48:39;7.65;;;2.85;;
72437;SDS011;60444;43.534;-5.674;2024-02-21T11:51:06;10.48;;;3.90;;
72437;SDS011;60444;43.534;-5.674;2024-02-21T11:53:31;8.53;;;2.90;;
72437;SDS011;60444;43.534;-5.674;2024-02-21T11:55:58;9.45;;;3.00;;
72437;SDS011;60444;43.534;-5.674;2024-02-21T11:58:24;8.23;;;3.13;;
72437;SDS011;60444;43.534;-5.674;2024-02-21T12:00:50;9.93;;;3.23;;
72437;SDS011;60444;43.534;-5.674;2024-02-21T12:03:16;8.63;;;3.13;;
72437;SDS011;60444;43.534;-5.674;2024-02-21T12:05:41;8.37;;;3.23;;
72437;SDS011;60444;43.534;-5.674;2024-02-21T12:08:07;9.07;;;3.85;;
72437;SDS011;60444;43.534;-5.674;2024-02-21T12:10:33;10.33;;;3.23;;
72437;SDS011;60444;43.534;-5.674;2024-02-21T12:13:10;10.60;;;4.07;;
72437;SDS011;60444;43.534;-5.674;2024-02-21T12:15:35;10.88;;;3.80;;
72437;SDS011;60444;43.534;-5.674;2024-02-21T12:18:01;10.17;;;3.17;;
72437;SDS011;60444;43.534;-5.674;2024-02-21T12:20:27;9.83;;;3.07;;
72437;SDS011;60444;43.534;-5.674;2024-02-21T12:22:52;8.73;;;3.53;;
72437;SDS011;60444;43.534;-5.674;2024-02-21T12:25:19;8.05;;;3.05;;
72437;SDS011;60444;43.534;-5.674;2024-02-21T12:27:51;9.13;;;3.00;;
72437;SDS011;60444;43.534;-5.674;2024-02-21T12:30:17;9.13;;;3.38;;
72437;SDS011;60444;43.534;-5.674;2024-02-21T12:32:44;10.30;;;3.20;;
72437;SDS011;60444;43.534;-5.674;2024-02-21T12:35:10;9.05;;;3.63;;
72437;SDS011;60444;43.534;-5.674;2024-02-21T12:37:36;11.60;;;4.10;;
72437;SDS011;60444;43.534;-5.674;2024-02-21T12:40:04;7.87;;;3.20;;
72437;SDS011;60444;43.534;-5.674;2024-02-21T12:42:32;11.93;;;4.00;;
72437;SDS011;60444;43.534;-5.674;2024-02-21T12:44:58;10.48;;;3.80;;
72437;SDS011;60444;43.534;-5.674;2024-02-21T12:47:24;19.30;;;6.13;;
72437;SDS011;60444;43.534;-5.674;2024-02-21T12:49:52;16.30;;;6.10;;
72437;SDS011;60444;43.534;-5.674;2024-02-21T12:52:17;22.60;;;6.65;;
72437;SDS011;60444;43.534;-5.674;2024-02-21T12:54:43;24.90;;;7.18;;
72437;SDS011;60444;43.534;-5.674;2024-02-21T12:57:09;19.47;;;6.30;;
72437;SDS011;60444;43.534;-5.674;2024-02-21T12:59:34;20.98;;;6.80;;
72437;SDS011;60444;43.534;-5.674;2024-02-21T13:02:00;21.33;;;5.60;;
72437;SDS011;60444;43.534;-5.674;2024-02-21T13:04:26;16.97;;;6.27;;
72437;SDS011;60444;43.534;-5.674;2024-02-21T13:06:51;20.95;;;6.28;;
72437;SDS011;60444;43.534;-5.674;2024-02-21T13:09:17;20.63;;;6.43;;
72437;SDS011;60444;43.534;-5.674;2024-02-21T13:11:43;15.13;;;4.70;;
72437;SDS011;60444;43.534;-5.674;2024-02-21T13:14:11;13.27;;;4.68;;
72437;SDS011;60444;43.534;-5.674;2024-02-21T13:16:36;19.47;;;5.93;;
72437;SDS011;60444;43.534;-5.674;2024-02-21T13:19:04;14.68;;;4.78;;
72437;SDS011;60444;43.534;-5.674;2024-02-21T13:21:30;14.90;;;4.80;;
72437;SDS011;60444;43.534;-5.674;2024-02-21T13:23:56;15.83;;;5.40;;
72437;SDS011;60444;43.534;-5.674;2024-02-21T13:26:22;20.73;;;6.23;;
72437;SDS011;60444;43.534;-5.674;2024-02-21T13:28:48;17.63;;;5.93;;
72437;SDS011;60444;43.534;-5.674;2024-02-21T13:31:14;14.90;;;4.70;;
72437;SDS011;60444;43.534;-5.674;2024-02-21T13:33:41;13.73;;;4.90;;
72437;SDS011;60444;43.534;-5.674;2024-02-21T13:36:07;17.07;;;6.20;;
72437;SDS011;60444;43.534;-5.674;2024-02-21T13:38:33;16.98;;;6.07;;
72437;SDS011;60444;43.534;-5.674;2024-02-21T13:40:58;16.57;;;6.50;;
72437;SDS011;60444;43.534;-5.674;2024-02-21T13:43:25;15.70;;;5.82;;
72437;SDS011;60444;43.534;-5.674;2024-02-21T13:45:57;20.40;;;6.37;;
72437;SDS011;60444;43.534;-5.674;2024-02-21T13:48:24;18.75;;;5.82;;
72437;SDS011;60444;43.534;-5.674;2024-02-21T13:50:49;20.07;;;6.73;;
72437;SDS011;60444;43.534;-5.674;2024-02-21T13:53:15;20.73;;;6.73;;
72437;SDS011;60444;43.534;-5.674;2024-02-21T13:55:43;23.02;;;6.85;;
72437;SDS011;60444;43.534;-5.674;2024-02-21T13:58:09;16.55;;;5.72;;
72437;SDS011;60444;43.534;-5.674;2024-02-21T14:00:35;19.40;;;5.30;;
72437;SDS011;60444;43.534;-5.674;2024-02-21T14:03:01;21.35;;;6.80;;
72437;SDS011;60444;43.534;-5.674;2024-02-21T14:05:27;22.77;;;7.03;;
72437;SDS011;60444;43.534;-5.674;2024-02-21T14:07:52;22.08;;;6.60;;
72437;SDS011;60444;43.534;-5.674;2024-02-21T14:10:19;16.50;;;5.50;;
72437;SDS011;60444;43.534;-5.674;2024-02-21T14:12:46;25.33;;;7.00;;
72437;SDS011;60444;43.534;-5.674;2024-02-21T14:15:12;19.65;;;6.05;;
72437;SDS011;60444;43.534;-5.674;2024-02-21T14:17:38;34.28;;;8.30;;
72437;SDS011;60444;43.534;-5.674;2024-02-21T14:20:04;25.90;;;8.00;;
72437;SDS011;60444;43.534;-5.674;2024-02-21T14:22:31;24.60;;;7.35;;
72437;SDS011;60444;43.534;-5.674;2024-02-21T14:24:56;22.10;;;6.50;;
72437;SDS011;60444;43.534;-5.674;2024-02-21T14:27:22;22.13;;;7.07;;
72437;SDS011;60444;43.534;-5.674;2024-02-21T14:29:47;18.63;;;6.20;;
72437;SDS011;60444;43.534;-5.674;2024-02-21T14:32:13;25.53;;;7.03;;
72437;SDS011;60444;43.534;-5.674;2024-02-21T14:34:38;23.70;;;6.63;;
72437;SDS011;60444;43.534;-5.674;2024-02-21T14:37:04;20.93;;;6.60;;
72437;SDS011;60444;43.534;-5.674;2024-02-21T14:39:30;18.83;;;5.65;;
72437;SDS011;60444;43.534;-5.674;2024-02-21T14:41:55;22.10;;;6.13;;